Time;durP1;ratioP1;P1;durP2;ratioP2;P2;SDS_P1;SDS_P2;PMS_P1;PMS_P2;Temp;Humidity;BMP_temperature;BMP_pressure;BME280_temperature;BME280_humidity;BME280_pressure;Samples;Min_cycle;Max_cycle;Signal;HPM_P1;HPM_P2
2022/07/15 00:00:37;;;;;;;10.77;1.55;;;;;;;16.44;62.63;102263.59;4972802;28;20026;-76
2022/07/15 00:03:03;;;;;;;10.10;1.40;;;;;;;16.37;62.93;102254.50;4975338;28;20543;-76
2022/07/15 00:05:29;;;;;;;11.18;1.30;;;;;;;16.33;63.31;102256.75;4976598;28;20466;-76
2022/07/15 00:07:54;;;;;;;6.90;1.52;;;;;;;16.28;63.64;102251.03;4976154;28;20030;-75
2022/07/15 00:10:21;;;;;;;9.98;1.45;;;;;;;16.28;64.40;102252.91;4976515;28;20523;-76
2022/07/15 00:12:51;;;;;;;7.60;1.38;;;;;;;16.23;64.49;102240.69;4976445;28;20023;-76
2022/07/15 00:15:19;;;;;;;9.85;1.42;;;;;;;16.31;64.43;102261.50;4995134;28;20022;-76
2022/07/15 00:17:44;;;;;;;8.00;1.45;;;;;;;16.29;64.32;102246.44;4993823;28;20023;-77
2022/07/15 00:20:11;;;;;;;13.75;1.73;;;;;;;16.29;64.23;102254.56;4976310;28;20497;-77
2022/07/15 00:22:37;;;;;;;13.02;1.40;;;;;;;16.21;64.63;102248.19;4976357;28;20142;-76
2022/07/15 00:25:02;;;;;;;7.63;1.80;;;;;;;16.20;64.95;102248.41;4974536;28;20023;-77
2022/07/15 00:27:28;;;;;;;8.65;1.67;;;;;;;16.20;65.03;102245.69;4975998;28;20446;-77
2022/07/15 00:29:53;;;;;;;13.85;2.08;;;;;;;16.20;65.03;102246.50;4975743;28;20501;-77
2022/07/15 00:32:18;;;;;;;7.38;1.13;;;;;;;16.21;64.85;102241.91;4975399;28;20104;-76
2022/07/15 00:34:44;;;;;;;11.35;1.33;;;;;;;16.19;65.22;102243.97;4975772;28;20051;-76
2022/07/15 00:37:09;;;;;;;12.13;1.48;;;;;;;16.16;65.14;102245.19;4975529;28;20058;-77
2022/07/15 00:39:36;;;;;;;12.13;1.45;;;;;;;16.14;65.49;102246.41;4975580;28;20030;-77
2022/07/15 00:42:01;;;;;;;12.90;1.40;;;;;;;16.13;65.24;102240.13;4975803;28;20038;-77
2022/07/15 00:44:27;;;;;;;12.00;1.52;;;;;;;16.11;65.54;102241.34;4975540;28;20031;-77
2022/07/15 00:46:53;;;;;;;9.35;1.48;;;;;;;16.09;65.24;102249.69;4975356;28;20045;-77
2022/07/15 00:49:18;;;;;;;7.40;1.08;;;;;;;16.11;64.56;102246.78;4975364;28;20531;-77
2022/07/15 00:51:46;;;;;;;13.35;1.08;;;;;;;16.06;64.78;102238.31;4974089;28;20051;-77
2022/07/15 00:54:14;;;;;;;11.98;1.67;;;;;;;16.00;64.79;102246.19;4975376;28;20041;-77
2022/07/15 00:56:43;;;;;;;6.22;0.90;;;;;;;15.99;64.82;102247.22;4973702;28;20111;-76
2022/07/15 00:59:10;;;;;;;6.28;1.45;;;;;;;15.97;63.86;102246.56;4975552;28;20153;-76
2022/07/15 01:01:35;;;;;;;6.57;1.15;;;;;;;15.91;64.54;102244.56;4975442;28;20022;-76
2022/07/15 01:04:03;;;;;;;4.70;0.77;;;;;;;15.88;64.20;102252.25;4973978;28;20121;-76
2022/07/15 01:06:29;;;;;;;7.72;1.35;;;;;;;15.90;64.51;102244.75;4974857;28;20019;-76
2022/07/15 01:08:54;;;;;;;5.32;0.95;;;;;;;15.91;64.88;102252.72;4974862;28;20455;-76
2022/07/15 01:11:20;;;;;;;8.20;0.95;;;;;;;15.95;64.69;102243.16;4975728;28;20522;-76
2022/07/15 01:13:46;;;;;;;7.63;1.15;;;;;;;15.97;64.41;102248.44;4974576;28;20078;-76
2022/07/15 01:16:11;;;;;;;6.45;1.00;;;;;;;15.97;64.50;102246.56;4975403;28;20026;-76
2022/07/15 01:18:37;;;;;;;4.97;0.93;;;;;;;15.97;63.24;102249.25;4975819;28;20030;-77
2022/07/15 01:21:02;;;;;;;5.22;1.15;;;;;;;15.94;62.92;102240.66;4975346;28;20105;-76
2022/07/15 01:23:27;;;;;;;4.15;0.88;;;;;;;15.91;61.98;102241.88;4975326;28;20023;-76
2022/07/15 01:25:53;;;;;;;6.82;1.10;;;;;;;15.89;62.18;102249.34;4976015;28;20030;-76
2022/07/15 01:28:19;;;;;;;2.95;0.70;;;;;;;15.86;62.48;102249.72;4975444;28;20030;-76
2022/07/15 01:30:44;;;;;;;6.30;0.70;;;;;;;15.85;62.35;102242.59;4974885;28;20651;-77
2022/07/15 01:33:09;;;;;;;8.82;0.90;;;;;;;15.83;61.87;102241.09;4974704;28;20026;-76
2022/07/15 01:35:35;;;;;;;5.78;0.80;;;;;;;15.81;61.92;102246.69;4974735;28;20113;-77
2022/07/15 01:38:00;;;;;;;5.35;1.05;;;;;;;15.79;62.11;102248.75;4976190;28;20118;-77
2022/07/15 01:40:25;;;;;;;4.72;0.90;;;;;;;15.81;61.93;102243.97;4988594;28;20069;-76
2022/07/15 01:42:51;;;;;;;3.30;0.80;;;;;;;15.79;61.87;102244.16;4997412;28;20055;-77
2022/07/15 01:45:16;;;;;;;5.70;0.93;;;;;;;15.81;62.26;102246.69;4985751;28;20042;-78
2022/07/15 01:47:46;;;;;;;6.03;0.85;;;;;;;15.83;62.65;102239.22;4975629;28;20027;-77
2022/07/15 01:50:12;;;;;;;9.60;1.30;;;;;;;15.86;62.59;102241.56;4974839;28;20030;-76
2022/07/15 01:52:37;;;;;;;9.90;1.23;;;;;;;15.87;62.67;102237.81;4973208;28;20027;-75
2022/07/15 01:55:04;;;;;;;5.25;0.60;;;;;;;15.89;62.46;102237.66;4974298;28;20110;-77
2022/07/15 01:57:30;;;;;;;4.03;1.00;;;;;;;15.86;62.79;102238.84;4974049;28;20110;-76
2022/07/15 01:59:55;;;;;;;7.65;0.82;;;;;;;15.83;62.96;102250.09;4974279;28;20109;-76
2022/07/15 02:02:20;;;;;;;7.20;0.82;;;;;;;15.82;62.56;102252.97;4974449;28;20030;-76
2022/07/15 02:04:46;;;;;;;6.13;0.77;;;;;;;15.77;62.59;102246.22;4973951;28;20435;-76
2022/07/15 02:07:11;;;;;;;3.58;0.70;;;;;;;15.78;62.15;102241.63;4974642;28;20035;-75
2022/07/15 02:09:36;;;;;;;4.88;0.80;;;;;;;15.78;62.12;102241.63;4974509;28;20037;-76
2022/07/15 02:12:02;;;;;;;6.05;1.02;;;;;;;15.75;61.68;102233.88;4974008;28;20546;-76
2022/07/15 02:14:27;;;;;;;5.78;1.40;;;;;;;15.72;62.03;102240.50;4974053;28;20030;-75
2022/07/15 02:16:52;;;;;;;2.85;0.75;;;;;;;15.73;61.63;102238.63;4974187;28;20015;-76
2022/07/15 02:19:18;;;;;;;3.88;0.63;;;;;;;15.71;61.59;102246.94;4974090;28;20055;-76
2022/07/15 02:21:43;;;;;;;5.28;0.80;;;;;;;15.71;61.55;102240.66;4973887;28;20023;-75
2022/07/15 02:24:09;;;;;;;3.95;0.68;;;;;;;15.68;61.25;102239.13;4973794;28;20459;-76
2022/07/15 02:26:35;;;;;;;2.15;0.63;;;;;;;15.67;61.62;102245.59;4973938;28;20027;-76
2022/07/15 02:29:00;;;;;;;2.03;0.60;;;;;;;15.65;60.97;102236.78;4972427;28;20471;-77
2022/07/15 02:31:25;;;;;;;7.70;0.85;;;;;;;15.63;61.40;102236.13;4973789;28;20022;-77
2022/07/15 02:33:51;;;;;;;5.28;1.02;;;;;;;15.60;61.36;102236.47;4973843;28;20137;-77
2022/07/15 02:36:16;;;;;;;3.35;0.60;;;;;;;15.56;61.53;102243.28;4973509;28;20023;-77
2022/07/15 02:38:42;;;;;;;7.50;0.75;;;;;;;15.55;61.73;102242.44;4973478;28;20057;-77
2022/07/15 02:41:08;;;;;;;2.60;0.80;;;;;;;15.54;61.38;102235.34;4973521;28;20027;-77
2022/07/15 02:43:33;;;;;;;9.52;1.45;;;;;;;15.49;61.72;102240.47;4973318;28;20094;-77
2022/07/15 02:45:59;;;;;;;6.13;0.80;;;;;;;15.47;62.00;102245.22;4973650;28;20039;-76
2022/07/15 02:48:24;;;;;;;5.30;0.60;;;;;;;15.46;62.23;102248.13;4973669;28;20444;-77
2022/07/15 02:50:50;;;;;;;4.25;0.70;;;;;;;15.45;62.09;102251.84;4973597;28;20022;-77
2022/07/15 02:53:15;;;;;;;2.08;0.65;;;;;;;15.43;62.62;102252.03;4973714;28;20054;-77
2022/07/15 02:55:41;;;;;;;6.35;0.90;;;;;;;15.43;62.45;102257.47;4973646;28;20029;-77
2022/07/15 02:58:06;;;;;;;3.13;0.88;;;;;;;15.46;62.41;102258.97;4973321;28;20034;-77
2022/07/15 03:00:33;;;;;;;8.60;1.08;;;;;;;15.44;62.41;102248.28;4972290;28;20062;-77
2022/07/15 03:02:58;;;;;;;6.40;1.00;;;;;;;15.43;62.11;102260.19;4973674;28;20050;-76
2022/07/15 03:05:24;;;;;;;6.20;1.05;;;;;;;15.44;62.51;102266.44;4972326;28;20023;-77
2022/07/15 03:07:49;;;;;;;3.10;0.70;;;;;;;15.41;62.28;102259.50;4973861;28;20359;-77
2022/07/15 03:10:14;;;;;;;6.05;0.93;;;;;;;15.40;62.92;102265.94;4996644;28;20085;-76
2022/07/15 03:12:40;;;;;;;3.92;0.90;;;;;;;15.44;63.04;102271.88;4992324;28;20042;-76
2022/07/15 03:15:06;;;;;;;12.82;1.70;;;;;;;15.42;62.48;102274.75;4973463;28;20029;-76
2022/07/15 03:17:31;;;;;;;7.25;0.85;;;;;;;15.41;62.49;102275.78;4973418;28;20031;-76
2022/07/15 03:19:57;;;;;;;5.03;0.60;;;;;;;15.37;62.82;102277.16;4973175;28;20019;-76
2022/07/15 03:22:25;;;;;;;3.97;0.73;;;;;;;15.35;62.77;102277.34;4973047;28;20034;-76
2022/07/15 03:24:51;;;;;;;10.20;1.02;;;;;;;15.37;62.56;102288.00;4973157;28;20130;-76
2022/07/15 03:27:17;;;;;;;6.40;1.00;;;;;;;15.36;62.80;102284.47;4973012;28;20130;-76
2022/07/15 03:29:43;;;;;;;8.73;0.98;;;;;;;15.36;63.21;102291.75;4972907;28;20058;-76
2022/07/15 03:32:10;;;;;;;6.82;0.90;;;;;;;15.39;63.07;102285.13;4973065;28;20027;-77
2022/07/15 03:34:35;;;;;;;6.18;0.90;;;;;;;15.41;63.32;102289.34;4972640;28;20054;-76
2022/07/15 03:37:01;;;;;;;4.28;0.88;;;;;;;15.45;63.50;102285.25;4974167;28;20031;-76
2022/07/15 03:39:26;;;;;;;6.10;1.20;;;;;;;15.49;63.49;102285.75;4976699;28;20114;-76
2022/07/15 03:41:51;;;;;;;4.50;0.88;;;;;;;15.53;63.12;102292.50;4975524;28;20046;-76
2022/07/15 03:44:17;;;;;;;5.18;0.95;;;;;;;15.53;63.01;102277.09;4976765;28;20076;-76
2022/07/15 03:46:45;;;;;;;6.60;1.00;;;;;;;15.56;63.15;102281.28;4975452;28;20370;-76
2022/07/15 03:49:10;;;;;;;2.78;0.60;;;;;;;15.57;63.27;102283.81;4977276;28;20090;-77
2022/07/15 03:51:36;;;;;;;6.40;0.80;;;;;;;15.62;62.88;102286.00;4977000;28;20050;-77
2022/07/15 03:54:03;;;;;;;4.78;0.93;;;;;;;15.66;63.12;102300.03;4976624;28;20101;-77
2022/07/15 03:56:29;;;;;;;5.13;0.68;;;;;;;15.68;63.06;102295.28;4976366;28;20157;-77
2022/07/15 03:58:54;;;;;;;5.40;0.98;;;;;;;15.69;63.17;102297.88;4976453;28;20030;-76
2022/07/15 04:01:20;;;;;;;6.60;0.85;;;;;;;15.69;63.05;102292.44;4976549;28;20034;-77
2022/07/15 04:03:48;;;;;;;5.30;1.33;;;;;;;15.72;63.22;102302.09;4976225;28;20371;-77
2022/07/15 04:06:13;;;;;;;7.00;0.90;;;;;;;15.74;63.22;102303.56;4976441;28;20037;-77
2022/07/15 04:08:38;;;;;;;7.35;1.17;;;;;;;15.78;63.09;102306.78;4976534;28;20053;-76
2022/07/15 04:11:04;;;;;;;3.83;0.73;;;;;;;15.78;62.79;102298.66;4976830;28;20117;-77
2022/07/15 04:13:29;;;;;;;5.53;0.95;;;;;;;15.79;62.72;102303.88;4976189;28;20086;-76
2022/07/15 04:15:54;;;;;;;7.10;0.93;;;;;;;15.79;62.81;102303.88;4975983;28;20348;-76
2022/07/15 04:18:20;;;;;;;4.90;1.15;;;;;;;15.81;63.28;102306.41;4976433;28;20031;-77
2022/07/15 04:20:45;;;;;;;4.40;0.68;;;;;;;15.88;62.97;102312.81;4976184;28;20562;-77
2022/07/15 04:23:10;;;;;;;3.35;0.65;;;;;;;15.90;62.99;102310.75;4976197;28;20059;-76
2022/07/15 04:25:36;;;;;;;9.00;0.90;;;;;;;15.94;63.52;102312.09;4976161;28;20074;-76
2022/07/15 04:28:01;;;;;;;6.93;1.10;;;;;;;15.98;63.27;102308.00;4976087;28;20061;-77
2022/07/15 04:30:26;;;;;;;7.55;0.70;;;;;;;16.02;63.13;102319.34;4976839;28;20088;-77
2022/07/15 04:32:52;;;;;;;18.50;1.40;;;;;;;16.07;63.42;102316.06;4995130;28;20027;-77
2022/07/15 04:35:17;;;;;;;5.38;0.52;;;;;;;16.13;62.82;102312.63;4994990;28;20430;-77
2022/07/15 04:37:43;;;;;;;8.63;1.35;;;;;;;16.18;62.89;102321.06;5009181;28;20046;-75
2022/07/15 04:40:09;;;;;;;5.68;0.80;;;;;;;16.22;63.26;102315.09;5014401;28;20034;-76
2022/07/15 04:42:35;;;;;;;6.15;0.85;;;;;;;16.30;62.56;102314.19;4995978;28;20057;-77
2022/07/15 04:45:00;;;;;;;6.28;1.30;;;;;;;16.35;62.20;102314.47;4994873;28;20435;-76
2022/07/15 04:47:25;;;;;;;8.20;0.68;;;;;;;16.43;62.22;102311.66;4994569;28;20042;-78
2022/07/15 04:52:35;;;;;;;2.60;0.75;;;;;;;16.56;61.95;102315.59;4994894;28;20045;-77
2022/07/15 04:55:00;;;;;;;5.15;0.93;;;;;;;16.67;62.24;102312.44;4995886;28;20050;-78
2022/07/15 04:57:25;;;;;;;7.28;1.08;;;;;;;16.76;62.38;102315.91;4994955;28;20129;-77
2022/07/15 04:59:51;;;;;;;4.72;0.93;;;;;;;16.82;61.42;102321.47;4994793;28;20100;-77
2022/07/15 05:02:17;;;;;;;3.53;0.80;;;;;;;16.88;61.14;102312.56;4994603;28;20034;-76
2022/07/15 05:04:42;;;;;;;10.18;0.70;;;;;;;16.89;61.32;102316.13;4994467;28;20356;-76
2022/07/15 05:07:07;;;;;;;3.92;0.93;;;;;;;16.96;61.21;102310.81;4994217;28;20030;-75
2022/07/15 05:09:33;;;;;;;9.27;1.55;;;;;;;17.02;61.39;102319.03;4994358;28;20105;-76
2022/07/15 05:11:58;;;;;;;6.13;0.95;;;;;;;17.08;61.37;102314.72;4994187;28;20116;-76
2022/07/15 05:14:24;;;;;;;5.10;0.80;;;;;;;17.15;60.70;102310.22;4994187;28;20580;-76
2022/07/15 05:16:50;;;;;;;7.43;0.90;;;;;;;17.13;60.41;102308.72;4994135;28;20430;-77
2022/07/15 05:19:15;;;;;;;5.90;1.00;;;;;;;17.21;60.49;102308.59;4994146;28;20028;-77
2022/07/15 05:21:41;;;;;;;9.82;1.23;;;;;;;17.27;60.56;102303.25;4994084;28;20022;-77
2022/07/15 05:24:06;;;;;;;8.48;1.13;;;;;;;17.46;59.85;102303.69;4993909;28;20035;-77
2022/07/15 05:26:32;;;;;;;8.07;0.88;;;;;;;17.55;59.56;102305.22;4993862;28;20041;-77
2022/07/15 05:28:57;;;;;;;5.47;0.85;;;;;;;17.68;59.23;102302.66;4994123;28;20069;-76
2022/07/15 05:31:22;;;;;;;13.27;1.00;;;;;;;17.70;58.83;102303.31;4994108;28;20034;-77
2022/07/15 05:33:48;;;;;;;8.45;1.20;;;;;;;17.77;58.65;102309.69;4976231;28;20053;-76
2022/07/15 05:36:14;;;;;;;4.68;0.70;;;;;;;17.84;58.56;102301.59;4994125;28;20029;-78
2022/07/15 05:38:41;;;;;;;7.53;1.15;;;;;;;17.89;57.74;102306.47;4992799;28;20172;-78
2022/07/15 05:41:06;;;;;;;7.03;1.13;;;;;;;17.87;58.80;102305.81;4993998;28;20061;-76
2022/07/15 05:43:31;;;;;;;3.92;0.65;;;;;;;17.95;58.91;102297.50;4993872;28;20098;-76
2022/07/15 05:45:57;;;;;;;6.72;0.65;;;;;;;18.16;58.13;102302.91;4994223;28;20041;-77
2022/07/15 05:48:22;;;;;;;6.93;0.77;;;;;;;18.30;57.19;102297.56;4994221;28;20026;-76
2022/07/15 05:50:49;;;;;;;9.98;1.35;;;;;;;18.36;57.36;102304.97;4993498;28;20344;-77
2022/07/15 05:53:14;;;;;;;4.90;0.70;;;;;;;18.34;56.88;102296.16;4993130;28;20076;-77
2022/07/15 05:55:40;;;;;;;3.05;0.90;;;;;;;18.32;56.87;102300.94;4993166;28;20022;-77
2022/07/15 05:58:09;;;;;;;6.90;1.20;;;;;;;18.40;57.36;102307.13;4992918;28;20030;-77
2022/07/15 06:00:36;;;;;;;6.15;1.13;;;;;;;18.52;55.98;102307.41;4993620;28;20030;-77
2022/07/15 06:03:01;;;;;;;10.10;1.55;;;;;;;18.61;56.14;102300.72;4993675;28;20041;-78
2022/07/15 06:05:28;;;;;;;4.60;0.95;;;;;;;18.73;56.22;102306.50;5012936;28;20042;-79
2022/07/15 06:07:53;;;;;;;5.20;0.60;;;;;;;18.83;56.01;102308.91;5012354;28;20058;-78
2022/07/15 06:10:19;;;;;;;3.03;0.82;;;;;;;19.01;55.46;102306.47;4993973;28;20038;-77
2022/07/15 06:12:44;;;;;;;7.38;1.05;;;;;;;19.23;55.24;102309.09;4993380;28;20027;-78
2022/07/15 06:15:10;;;;;;;7.68;0.88;;;;;;;19.66;53.54;102297.88;4994271;28;20058;-78
2022/07/15 06:17:35;;;;;;;8.13;0.90;;;;;;;19.87;52.73;102300.44;4993673;28;20466;-77
2022/07/15 06:20:00;;;;;;;9.07;0.90;;;;;;;19.82;53.01;102307.59;4993645;28;20686;-77
2022/07/15 06:22:26;;;;;;;4.00;1.08;;;;;;;19.78;52.48;102301.72;4992818;28;20370;-77
2022/07/15 06:24:51;;;;;;;8.45;1.25;;;;;;;19.86;52.55;102309.69;4993119;28;20030;-77
2022/07/15 06:27:16;;;;;;;5.57;0.98;;;;;;;19.79;52.16;102303.38;4993591;28;20026;-78
2022/07/15 06:29:42;;;;;;;8.95;1.08;;;;;;;19.65;52.57;102309.84;4993465;28;20028;-77
2022/07/15 06:32:07;;;;;;;4.70;0.90;;;;;;;19.48;52.87;102315.69;4993412;28;20466;-78
2022/07/15 06:34:33;;;;;;;9.30;1.63;;;;;;;19.31;52.92;102314.34;4993276;28;20066;-76
2022/07/15 06:36:59;;;;;;;3.28;0.70;;;;;;;19.13;52.94;102309.44;4993221;28;20041;-77
2022/07/15 06:39:24;;;;;;;5.85;1.20;;;;;;;18.99;53.87;102303.09;4993640;28;20038;-76
2022/07/15 06:41:49;;;;;;;2.70;0.98;;;;;;;18.93;54.43;102312.09;4993000;28;20061;-77
2022/07/15 06:44:15;;;;;;;5.75;0.75;;;;;;;18.92;55.74;102310.41;4992874;28;20149;-76
2022/07/15 06:46:41;;;;;;;6.50;1.00;;;;;;;18.98;55.36;102312.31;4993087;28;20093;-76
2022/07/15 06:49:06;;;;;;;6.15;0.85;;;;;;;19.04;54.42;102307.97;4992918;28;20030;-76
2022/07/15 06:51:31;;;;;;;5.88;0.82;;;;;;;19.07;54.21;102311.09;4992737;28;20019;-76
2022/07/15 06:53:57;;;;;;;7.07;0.90;;;;;;;19.04;53.90;102316.97;4992181;28;20026;-76
2022/07/15 06:56:22;;;;;;;5.20;0.70;;;;;;;19.01;53.81;102328.31;4992432;28;20030;-76
2022/07/15 06:58:47;;;;;;;8.68;0.90;;;;;;;19.03;54.59;102319.91;4992934;28;20034;-76
2022/07/15 07:01:13;;;;;;;4.70;0.80;;;;;;;19.31;55.43;102319.81;4992758;28;20030;-77
2022/07/15 07:03:38;;;;;;;7.95;1.33;;;;;;;20.20;52.88;102320.66;4992249;28;20036;-76
2022/07/15 07:06:06;;;;;;;2.67;0.90;;;;;;;21.68;49.82;102319.00;4990746;28;20022;-78
2022/07/15 07:08:32;;;;;;;5.68;0.90;;;;;;;23.25;45.95;102323.53;4992056;28;20537;-77
2022/07/15 07:10:57;;;;;;;4.60;1.02;;;;;;;24.12;42.43;102328.63;4991520;28;20030;-77
2022/07/15 07:13:23;;;;;;;5.00;0.80;;;;;;;25.34;40.16;102329.78;4992636;28;20442;-77
2022/07/15 07:15:49;;;;;;;4.20;1.00;;;;;;;26.17;37.83;102327.44;4992528;28;20026;-78
2022/07/15 07:18:14;;;;;;;3.67;0.90;;;;;;;26.30;36.63;102320.75;4992321;28;20033;-78
2022/07/15 07:20:43;;;;;;;3.75;0.90;;;;;;;26.42;36.40;102332.56;4992714;28;20030;-77
2022/07/15 07:23:09;;;;;;;3.22;0.70;;;;;;;26.24;35.98;102323.44;4992562;28;20110;-78
2022/07/15 07:25:34;;;;;;;3.70;1.20;;;;;;;26.26;36.23;102334.22;4991549;28;20109;-78
2022/07/15 07:28:03;;;;;;;5.53;0.93;;;;;;;26.86;35.34;102335.44;4990174;28;20383;-77
2022/07/15 07:30:29;;;;;;;6.07;1.20;;;;;;;26.63;34.35;102325.44;4992673;28;20030;-77
2022/07/15 07:32:54;;;;;;;6.55;0.80;;;;;;;27.35;33.97;102328.03;5002504;28;20359;-77
2022/07/15 07:35:19;;;;;;;3.55;1.05;;;;;;;27.22;35.26;102330.38;5000940;28;20050;-78
2022/07/15 07:37:45;;;;;;;3.10;0.77;;;;;;;27.63;34.45;102328.91;4992189;28;20034;-77
2022/07/15 07:40:10;;;;;;;2.17;0.68;;;;;;;27.24;33.65;102331.78;4991639;28;20114;-77
2022/07/15 07:42:36;;;;;;;2.10;0.50;;;;;;;25.94;35.75;102331.22;4991888;28;20038;-77
2022/07/15 07:45:01;;;;;;;4.57;0.88;;;;;;;26.22;33.69;102333.03;4991596;28;20022;-77
2022/07/15 07:47:27;;;;;;;4.97;0.90;;;;;;;26.44;33.21;102325.69;4992063;28;20474;-78
2022/07/15 07:49:53;;;;;;;2.17;0.70;;;;;;;27.05;33.63;102330.44;4991978;28;20045;-77
2022/07/15 07:52:18;;;;;;;5.07;1.20;;;;;;;27.51;33.55;102331.00;4992177;28;20410;-78
2022/07/15 07:54:43;;;;;;;3.20;0.75;;;;;;;27.71;32.16;102328.44;4991970;28;20022;-77
2022/07/15 07:57:10;;;;;;;3.42;0.80;;;;;;;27.51;32.71;102322.69;4991601;28;20654;-77
2022/07/15 07:59:35;;;;;;;3.22;0.75;;;;;;;27.05;33.80;102322.97;4990183;28;20031;-77
2022/07/15 08:02:01;;;;;;;3.33;0.90;;;;;;;27.61;33.10;102314.50;4991807;28;20045;-77
2022/07/15 08:04:26;;;;;;;2.63;0.70;;;;;;;27.88;33.13;102321.97;4991433;28;20030;-78
2022/07/15 08:06:52;;;;;;;3.67;0.88;;;;;;;28.72;32.14;102323.19;4991697;28;20018;-78
2022/07/15 08:09:17;;;;;;;8.07;0.95;;;;;;;28.79;30.40;102318.25;4992176;28;20474;-78
2022/07/15 08:11:44;;;;;;;4.72;1.00;;;;;;;29.44;29.41;102319.63;4991639;28;20022;-78
2022/07/15 08:14:09;;;;;;;;;;;;;;;29.78;28.59;102327.50;4991925;28;20532;-78
2022/07/15 08:16:35;;;;;;;2.67;0.60;;;;;;;29.82;28.70;102323.03;4991504;28;20012;-77
2022/07/15 08:19:00;;;;;;;4.57;0.93;;;;;;;29.98;29.55;102324.72;4991410;28;20046;-78
2022/07/15 08:21:26;;;;;;;4.77;0.70;;;;;;;29.53;28.53;102326.28;4991707;28;20041;-78
2022/07/15 08:23:51;;;;;;;3.80;0.65;;;;;;;28.85;30.47;102328.25;4994217;28;20077;-78
2022/07/15 08:26:23;;;;;;;6.82;0.90;;;;;;;29.16;29.66;102322.88;4977045;28;20023;-77
2022/07/15 08:28:48;;;;;;;2.47;0.57;;;;;;;29.60;29.19;102326.03;4995033;28;20038;-78
2022/07/15 08:31:14;;;;;;;5.03;0.90;;;;;;;29.91;28.21;102324.19;4995136;28;20113;-78
2022/07/15 08:33:39;;;;;;;3.27;0.80;;;;;;;30.35;27.54;102318.06;4995321;28;20185;-78
2022/07/15 08:36:05;;;;;;;7.60;1.33;;;;;;;31.41;26.34;102322.72;4995215;28;20022;-78
2022/07/15 08:38:30;;;;;;;5.87;0.83;;;;;;;31.47;25.62;102327.16;4995274;28;20034;-77
2022/07/15 08:40:56;;;;;;;3.40;0.93;;;;;;;30.78;26.20;102326.88;4995461;28;20086;-79
2022/07/15 08:43:22;;;;;;;4.63;1.33;;;;;;;30.12;27.24;102330.56;4993677;28;20034;-78
2022/07/15 08:45:47;;;;;;;3.40;0.87;;;;;;;28.98;29.18;102333.28;4994439;28;20050;-78
2022/07/15 08:48:13;;;;;;;5.00;0.77;;;;;;;28.20;30.87;102333.91;4995688;28;20104;-78
2022/07/15 08:50:41;;;;;;;2.20;0.75;;;;;;;27.38;30.95;102332.22;4994765;28;20042;-77
2022/07/15 08:53:06;;;;;;;1.42;0.63;;;;;;;26.70;30.93;102332.47;4995845;28;20371;-78
2022/07/15 08:55:32;;;;;;;6.10;0.85;;;;;;;26.01;32.27;102327.22;4995758;28;20030;-78
2022/07/15 08:57:57;;;;;;;7.00;1.70;;;;;;;25.48;33.87;102320.13;4996676;28;20061;-78
2022/07/15 09:00:33;;;;;;;4.68;0.82;;;;;;;25.52;34.66;102321.31;5010818;28;20026;-77
2022/07/15 09:03:01;;;;;;;6.15;0.75;;;;;;;25.27;35.74;102326.31;5012527;28;20026;-77
2022/07/15 09:05:29;;;;;;;4.45;0.80;;;;;;;25.63;35.59;102323.19;4995177;28;20065;-77
2022/07/15 09:08:04;;;;;;;7.85;1.90;;;;;;;26.38;34.70;102328.59;4994709;28;20034;-78
2022/07/15 09:10:51;;;;;;;3.20;0.80;;;;;;;27.55;31.92;102332.16;4993262;28;20026;-78
2022/07/15 09:13:24;;;;;;;4.88;1.10;;;;;;;28.63;29.94;102332.00;4994543;28;20025;-78
2022/07/15 09:15:49;;;;;;;2.20;0.77;;;;;;;29.06;29.21;102324.50;4994281;28;20034;-79
2022/07/15 09:18:17;;;;;;;2.85;0.65;;;;;;;29.00;29.66;102328.31;4994570;28;20390;-78
2022/07/15 09:20:44;;;;;;;3.88;0.95;;;;;;;28.21;29.93;102324.47;4994821;28;20046;-79
2022/07/15 09:23:12;;;;;;;3.50;0.70;;;;;;;27.68;31.51;102320.66;4993715;28;20027;-79
2022/07/15 09:25:38;;;;;;;3.55;1.17;;;;;;;27.20;32.65;102322.38;4994000;28;20453;-77
2022/07/15 09:28:06;;;;;;;2.83;0.80;;;;;;;26.91;33.46;102317.00;4994194;28;20030;-79
2022/07/15 09:33:43;;;;;;;;;;;;;;;26.47;34.28;102311.38;4995684;28;20092;-77
2022/07/15 09:36:23;;;;;;;2.65;0.70;;;;;;;25.87;34.23;102311.22;4995091;28;19921;-78
2022/07/15 09:38:53;;;;;;;2.80;0.73;;;;;;;25.92;34.85;102314.91;4992780;28;20038;-77
2022/07/15 09:41:38;;;;;;;3.85;0.80;;;;;;;25.76;35.24;102310.19;4993567;28;20022;-78
2022/07/15 09:44:12;;;;;;;3.30;0.70;;;;;;;25.56;34.44;102316.97;4993957;28;20058;-76
2022/07/15 09:46:52;;;;;;;2.13;0.68;;;;;;;25.41;34.81;102311.19;4992031;28;20030;-77
2022/07/15 09:49:29;;;;;;;2.38;0.55;;;;;;;25.60;33.92;102296.09;4993272;28;20076;-76
2022/07/15 09:51:57;;;;;;;1.85;0.55;;;;;;;25.25;33.62;102303.69;4995418;28;20145;-77
2022/07/15 09:54:30;;;;;;;2.00;0.70;;;;;;;25.38;33.80;102303.38;4993006;28;20042;-77
2022/07/15 09:56:57;;;;;;;4.05;0.95;;;;;;;25.78;33.48;102308.00;4992809;28;20552;-77
2022/07/15 09:59:23;;;;;;;;;;;;;;;25.61;33.90;102306.03;4996321;28;20116;-77
2022/07/15 10:01:48;;;;;;;4.80;0.80;;;;;;;26.41;33.88;102308.78;4993378;28;19941;-77
2022/07/15 10:04:20;;;;;;;2.92;1.02;;;;;;;27.03;31.30;102304.97;4993676;28;20027;-77
2022/07/15 10:06:47;;;;;;;2.15;0.60;;;;;;;27.52;28.20;102311.38;4992918;28;20427;-78
2022/07/15 10:09:12;;;;;;;1.10;0.80;;;;;;;27.96;28.35;102310.44;4992484;28;20059;-77
2022/07/15 10:11:45;;;;;;;2.60;0.70;;;;;;;28.41;28.29;102311.88;4975598;28;20225;-77
2022/07/15 10:14:45;;;;;;;2.10;0.80;;;;;;;28.73;28.35;102308.25;4991877;28;20212;-77
2022/07/15 10:17:13;;;;;;;1.33;0.80;;;;;;;28.88;27.69;102305.53;4993553;28;20026;-78
2022/07/15 10:20:27;;;;;;;7.53;0.90;;;;;;;28.61;28.00;102300.97;4999328;28;20470;-78
2022/07/15 10:22:57;;;;;;;5.70;0.85;;;;;;;28.94;27.05;102298.91;4959037;28;20053;-78
2022/07/15 10:25:46;;;;;;;2.30;1.00;;;;;;;29.14;27.00;102294.59;4989844;28;20034;-78
2022/07/15 10:28:43;;;;;;;7.10;2.17;;;;;;;29.60;27.15;102294.69;5005191;28;20068;-78
2022/07/15 10:31:17;;;;;;;2.63;1.20;;;;;;;29.73;25.91;102283.09;5005377;28;20038;-78
2022/07/15 10:34:03;;;;;;;4.25;1.00;;;;;;;29.78;26.54;102291.44;4994518;28;20106;-78
2022/07/15 10:36:46;;;;;;;3.38;0.95;;;;;;;29.82;25.57;102275.03;4995458;28;20462;-77
2022/07/15 10:39:12;;;;;;;6.53;1.40;;;;;;;29.37;25.72;102282.16;4996082;28;20031;-78
2022/07/15 10:41:58;;;;;;;5.07;1.45;;;;;;;29.84;25.16;102279.19;4996953;28;20050;-78
2022/07/15 10:44:26;;;;;;;6.40;1.50;;;;;;;29.15;25.49;102276.84;5000214;28;20030;-78
2022/07/15 10:47:13;;;;;;;2.38;1.08;;;;;;;28.20;27.16;102278.53;5001734;28;20030;-78
2022/07/15 10:49:39;;;;;;;4.05;1.10;;;;;;;28.20;27.93;102278.53;5005467;28;20022;-78
2022/07/15 10:52:13;;;;;;;5.03;1.50;;;;;;;28.78;27.73;102283.31;4994587;28;20042;-79
2022/07/15 10:55:03;;;;;;;2.40;1.13;;;;;;;29.26;26.35;102281.31;4992747;28;20026;-78
2022/07/15 10:57:41;;;;;;;2.78;1.05;;;;;;;29.74;26.73;102274.47;4991187;28;20041;-78
2022/07/15 11:00:28;;;;;;;8.88;1.30;;;;;;;29.87;26.00;102283.38;4995462;28;20034;-78
2022/07/15 11:03:06;;;;;;;7.95;1.17;;;;;;;30.01;25.86;102283.63;4994938;28;20034;-77
2022/07/15 11:05:32;;;;;;;8.23;1.40;;;;;;;29.65;26.16;102289.16;4995461;28;20121;-78
2022/07/15 11:07:58;;;;;;;6.00;1.33;;;;;;;29.35;27.84;102292.69;5003369;28;20103;-78
2022/07/15 11:10:24;;;;;;;5.13;1.15;;;;;;;29.53;27.04;102284.69;4995681;28;20022;-78
2022/07/15 11:12:49;;;;;;;7.60;1.40;;;;;;;29.68;27.12;102281.13;4994497;28;20053;-78
2022/07/15 11:15:19;;;;;;;7.97;2.50;;;;;;;30.13;26.77;102286.97;4993011;28;20368;-77
2022/07/15 11:17:47;;;;;;;7.30;1.58;;;;;;;29.95;27.23;102282.81;4992677;28;20037;-78
2022/07/15 11:20:15;;;;;;;5.35;1.48;;;;;;;30.26;26.84;102277.25;4992657;28;20026;-78
2022/07/15 11:22:42;;;;;;;7.78;1.58;;;;;;;30.26;27.11;102278.09;4992473;28;20117;-78
2022/07/15 11:25:16;;;;;;;6.22;1.70;;;;;;;30.27;26.96;102271.41;4993723;28;20053;-78
2022/07/15 11:27:54;;;;;;;4.65;1.30;;;;;;;30.03;27.25;102276.69;5005365;28;20030;-78
2022/07/15 11:30:20;;;;;;;5.55;1.75;;;;;;;30.08;26.95;102267.53;4990949;28;20109;-78